ASN logo
Accident
Last updated: 12 December 2017
Statuts:
Date:mercredi 21 décembre 2016
Heure:17:18
Type/Sous-type:Silhouette image of generic BE20 model; specific model in this crash may look slightly different
Beechcraft B200T Super King Air
Compagnie:Royal Malaysian Air Force - RMAF
Immatriculation: M41-03
Numéro de série: BT-37
Année de Fabrication: 1994
Equipage:victimes: 1 / à bord: 4
Passagers:victimes: 0 / à bord: 0
Total:victimes: 1 / à bord: 4
Dégats de l'appareil: Détruit
Conséquences: Written off (damaged beyond repair)
Lieu de l'accident:Butterworth RMAF Station (BWH) (   Malaysie)
Phase de vol: A l'atterrissage (LDG)
Nature:Militaire
Aéroport de départ:Kuala Lumpur Subang International Airport (KUL/WMKK), Malaysie
Aéroport de destination:Butterworth Airport (BWH/WMKB), Malaysie
Détails:
The Beechcraft 200T King Air crashed while trying to land at Butterworth RMAF Station, after conducting a training flight. The plane was completely destroyed. There is at least one fatality.

Sources:
» New Straits Times
» Aviation Letter 602

METAR Weather report:
09:00 UTC / 17:00 local time:
WMKB 210900Z 29007KT 240V350 9999 FEW020 SCT140 BKN280 29/24 Q1006

10:00 UTC / 18:00 local time:
WMKB 211000Z 30007KT 260V340 9999 FEW017CB SCT140 BKN280 29/24 Q1007 NOSIG


Photos

Add your photo of this accident or aircraft

Video, social media

Plan
Ce plan montre l'aéroport de départ ainsi que la supposée destination du vol. La ligne fixe reliant les deux aéroports n'est pas le plan de vol exact.
La distance entre Kuala Lumpur Subang International Airport et Butterworth Airport est de 334 km (209 miles).
Accident location: Approximate; accuracy within a few kilometers.

Les informations ci-dessus ne représentent pas l'opinion de la 'Flight Safety Foundation' ou de 'Aviation Safety Network' sur les causes de l'accident. Ces informations prélimimaires sont basées sur les faits tel qu'ils sont connus à ce jour.
languages: languages

Share